sensor_id;sensor_type;location;lat;lon;timestamp;temperature;humidity
7218;DHT22;3650;53.580;10.094;2022-12-18T00:02:13;-0.40;75.90
7218;DHT22;3650;53.580;10.094;2022-12-18T00:04:40;-0.40;75.50
7218;DHT22;3650;53.580;10.094;2022-12-18T00:07:08;-0.40;75.10
7218;DHT22;3650;53.580;10.094;2022-12-18T00:09:35;-0.40;74.50
7218;DHT22;3650;53.580;10.094;2022-12-18T00:12:03;-0.40;74.60
7218;DHT22;3650;53.580;10.094;2022-12-18T00:14:30;-0.50;74.80
7218;DHT22;3650;53.580;10.094;2022-12-18T00:16:57;-0.50;75.00
7218;DHT22;3650;53.580;10.094;2022-12-18T00:19:27;-0.50;75.00
7218;DHT22;3650;53.580;10.094;2022-12-18T00:21:54;-0.50;75.80
7218;DHT22;3650;53.580;10.094;2022-12-18T00:24:22;-0.50;74.20
7218;DHT22;3650;53.580;10.094;2022-12-18T00:26:49;-0.50;74.60
7218;DHT22;3650;53.580;10.094;2022-12-18T00:29:16;-0.50;74.60
7218;DHT22;3650;53.580;10.094;2022-12-18T00:31:43;-0.50;74.50
7218;DHT22;3650;53.580;10.094;2022-12-18T00:34:11;-0.60;74.10
7218;DHT22;3650;53.580;10.094;2022-12-18T00:36:40;-0.60;73.90
7218;DHT22;3650;53.580;10.094;2022-12-18T00:39:06;-0.60;74.50
7218;DHT22;3650;53.580;10.094;2022-12-18T00:41:35;-0.60;74.70
7218;DHT22;3650;53.580;10.094;2022-12-18T00:44:19;-0.60;74.60
7218;DHT22;3650;53.580;10.094;2022-12-18T00:46:47;-0.60;74.00
7218;DHT22;3650;53.580;10.094;2022-12-18T00:49:15;-0.60;73.70
7218;DHT22;3650;53.580;10.094;2022-12-18T00:51:42;-0.60;73.70
7218;DHT22;3650;53.580;10.094;2022-12-18T00:54:09;-0.60;73.70
7218;DHT22;3650;53.580;10.094;2022-12-18T00:56:38;-0.60;73.70
7218;DHT22;3650;53.580;10.094;2022-12-18T00:59:05;-0.70;73.20
7218;DHT22;3650;53.580;10.094;2022-12-18T01:01:32;-0.70;73.20
7218;DHT22;3650;53.580;10.094;2022-12-18T01:04:00;-0.70;73.20
7218;DHT22;3650;53.580;10.094;2022-12-18T01:06:27;-0.70;73.00
7218;DHT22;3650;53.580;10.094;2022-12-18T01:08:55;-0.70;73.20
7218;DHT22;3650;53.580;10.094;2022-12-18T01:11:22;-0.70;73.50
7218;DHT22;3650;53.580;10.094;2022-12-18T01:13:51;-0.70;73.30
7218;DHT22;3650;53.580;10.094;2022-12-18T01:16:19;-0.80;73.30
7218;DHT22;3650;53.580;10.094;2022-12-18T01:18:46;-0.80;73.00
7218;DHT22;3650;53.580;10.094;2022-12-18T01:21:14;-0.80;72.60
7218;DHT22;3650;53.580;10.094;2022-12-18T01:23:41;-0.80;72.80
7218;DHT22;3650;53.580;10.094;2022-12-18T01:26:13;-0.80;73.30
7218;DHT22;3650;53.580;10.094;2022-12-18T01:28:40;-0.80;73.40
7218;DHT22;3650;53.580;10.094;2022-12-18T01:31:14;-0.80;73.60
7218;DHT22;3650;53.580;10.094;2022-12-18T01:33:41;-0.90;73.40
7218;DHT22;3650;53.580;10.094;2022-12-18T01:36:13;-0.90;73.10
7218;DHT22;3650;53.580;10.094;2022-12-18T01:38:40;-0.90;73.20
7218;DHT22;3650;53.580;10.094;2022-12-18T01:41:08;-0.90;73.10
7218;DHT22;3650;53.580;10.094;2022-12-18T01:43:50;-0.90;73.00
7218;DHT22;3650;53.580;10.094;2022-12-18T01:46:21;-0.90;73.00
7218;DHT22;3650;53.580;10.094;2022-12-18T01:48:54;-0.90;72.90
7218;DHT22;3650;53.580;10.094;2022-12-18T01:51:23;-0.90;73.30
7218;DHT22;3650;53.580;10.094;2022-12-18T01:53:50;-0.90;73.50
7218;DHT22;3650;53.580;10.094;2022-12-18T01:56:19;-0.90;73.00
7218;DHT22;3650;53.580;10.094;2022-12-18T01:58:51;-0.90;72.60
7218;DHT22;3650;53.580;10.094;2022-12-18T02:01:22;-0.90;72.40
7218;DHT22;3650;53.580;10.094;2022-12-18T02:03:49;-0.90;72.60
7218;DHT22;3650;53.580;10.094;2022-12-18T02:06:20;-0.90;72.90
7218;DHT22;3650;53.580;10.094;2022-12-18T02:08:56;-0.90;72.60
7218;DHT22;3650;53.580;10.094;2022-12-18T02:11:34;-1.00;72.50
7218;DHT22;3650;53.580;10.094;2022-12-18T02:14:11;-1.00;72.50
7218;DHT22;3650;53.580;10.094;2022-12-18T02:16:46;-1.00;72.30
7218;DHT22;3650;53.580;10.094;2022-12-18T02:19:32;-1.00;72.30
7218;DHT22;3650;53.580;10.094;2022-12-18T02:22:14;-1.00;72.20
7218;DHT22;3650;53.580;10.094;2022-12-18T02:24:47;-1.00;72.20
7218;DHT22;3650;53.580;10.094;2022-12-18T02:27:18;-1.00;73.40
7218;DHT22;3650;53.580;10.094;2022-12-18T02:29:49;-1.00;72.10
7218;DHT22;3650;53.580;10.094;2022-12-18T02:32:21;-1.00;71.90
7218;DHT22;3650;53.580;10.094;2022-12-18T02:34:51;-1.10;71.60
7218;DHT22;3650;53.580;10.094;2022-12-18T02:37:19;-1.00;71.70
7218;DHT22;3650;53.580;10.094;2022-12-18T02:39:49;-1.10;71.60
7218;DHT22;3650;53.580;10.094;2022-12-18T02:42:19;-1.10;71.50
7218;DHT22;3650;53.580;10.094;2022-12-18T02:44:48;-1.10;71.50
7218;DHT22;3650;53.580;10.094;2022-12-18T02:47:17;-1.10;71.50
7218;DHT22;3650;53.580;10.094;2022-12-18T02:49:53;-1.10;71.30
7218;DHT22;3650;53.580;10.094;2022-12-18T02:52:28;-1.10;71.50
7218;DHT22;3650;53.580;10.094;2022-12-18T02:55:07;-1.10;71.10
7218;DHT22;3650;53.580;10.094;2022-12-18T02:57:42;-1.10;71.40
7218;DHT22;3650;53.580;10.094;2022-12-18T03:00:15;-1.20;71.20
7218;DHT22;3650;53.580;10.094;2022-12-18T03:02:46;-1.20;71.20
7218;DHT22;3650;53.580;10.094;2022-12-18T03:05:18;-1.20;71.00
7218;DHT22;3650;53.580;10.094;2022-12-18T03:07:50;-1.20;71.00
7218;DHT22;3650;53.580;10.094;2022-12-18T03:10:21;-1.20;71.20
7218;DHT22;3650;53.580;10.094;2022-12-18T03:12:54;-1.30;71.00
7218;DHT22;3650;53.580;10.094;2022-12-18T03:15:27;-1.30;71.30
7218;DHT22;3650;53.580;10.094;2022-12-18T03:17:56;-1.30;71.50
7218;DHT22;3650;53.580;10.094;2022-12-18T03:20:27;-1.30;71.50
7218;DHT22;3650;53.580;10.094;2022-12-18T03:22:59;-1.30;71.50
7218;DHT22;3650;53.580;10.094;2022-12-18T03:25:28;-1.30;71.50
7218;DHT22;3650;53.580;10.094;2022-12-18T03:28:00;-1.30;71.60
7218;DHT22;3650;53.580;10.094;2022-12-18T03:30:29;-1.40;71.60
7218;DHT22;3650;53.580;10.094;2022-12-18T03:33:01;-1.40;71.60
7218;DHT22;3650;53.580;10.094;2022-12-18T03:35:31;-1.40;71.40
7218;DHT22;3650;53.580;10.094;2022-12-18T03:37:59;-1.40;71.30
7218;DHT22;3650;53.580;10.094;2022-12-18T03:40:31;-1.40;71.40
7218;DHT22;3650;53.580;10.094;2022-12-18T03:43:07;-1.40;71.70
7218;DHT22;3650;53.580;10.094;2022-12-18T03:45:39;-1.50;71.50
7218;DHT22;3650;53.580;10.094;2022-12-18T03:48:13;-1.50;71.30
7218;DHT22;3650;53.580;10.094;2022-12-18T03:50:46;-1.50;71.50
7218;DHT22;3650;53.580;10.094;2022-12-18T03:53:23;-1.50;71.80
7218;DHT22;3650;53.580;10.094;2022-12-18T03:55:51;-1.50;71.90
7218;DHT22;3650;53.580;10.094;2022-12-18T03:58:23;-1.50;72.00
7218;DHT22;3650;53.580;10.094;2022-12-18T04:00:52;-1.50;71.90
7218;DHT22;3650;53.580;10.094;2022-12-18T04:03:20;-1.50;71.80
7218;DHT22;3650;53.580;10.094;2022-12-18T04:05:49;-1.50;72.10
7218;DHT22;3650;53.580;10.094;2022-12-18T04:08:17;-1.50;72.40
7218;DHT22;3650;53.580;10.094;2022-12-18T04:10:44;-1.50;72.30
7218;DHT22;3650;53.580;10.094;2022-12-18T04:13:11;-1.50;72.20
7218;DHT22;3650;53.580;10.094;2022-12-18T04:15:39;-1.50;72.30
7218;DHT22;3650;53.580;10.094;2022-12-18T04:18:08;-1.60;72.20
7218;DHT22;3650;53.580;10.094;2022-12-18T04:20:34;-1.60;72.10
7218;DHT22;3650;53.580;10.094;2022-12-18T04:23:01;-1.60;72.00
7218;DHT22;3650;53.580;10.094;2022-12-18T04:25:28;-1.60;71.90
7218;DHT22;3650;53.580;10.094;2022-12-18T04:27:55;-1.60;71.90
7218;DHT22;3650;53.580;10.094;2022-12-18T04:30:21;-1.60;72.10
7218;DHT22;3650;53.580;10.094;2022-12-18T04:32:50;-1.60;72.00
7218;DHT22;3650;53.580;10.094;2022-12-18T04:35:17;-1.60;72.00
7218;DHT22;3650;53.580;10.094;2022-12-18T04:37:44;-1.60;71.90
7218;DHT22;3650;53.580;10.094;2022-12-18T04:40:11;-1.60;72.20
7218;DHT22;3650;53.580;10.094;2022-12-18T04:42:38;-1.60;72.30
7218;DHT22;3650;53.580;10.094;2022-12-18T04:45:07;-1.60;72.50
7218;DHT22;3650;53.580;10.094;2022-12-18T04:47:34;-1.60;72.20
7218;DHT22;3650;53.580;10.094;2022-12-18T04:50:02;-1.60;71.90
7218;DHT22;3650;53.580;10.094;2022-12-18T04:52:29;-1.60;71.90
7218;DHT22;3650;53.580;10.094;2022-12-18T04:54:59;-1.60;71.80
7218;DHT22;3650;53.580;10.094;2022-12-18T04:57:26;-1.60;71.80
7218;DHT22;3650;53.580;10.094;2022-12-18T04:59:52;-1.60;71.60
7218;DHT22;3650;53.580;10.094;2022-12-18T05:02:19;-1.60;71.30
7218;DHT22;3650;53.580;10.094;2022-12-18T05:04:46;-1.60;71.10
7218;DHT22;3650;53.580;10.094;2022-12-18T05:07:14;-1.60;70.90
7218;DHT22;3650;53.580;10.094;2022-12-18T05:09:41;-1.70;71.00
7218;DHT22;3650;53.580;10.094;2022-12-18T05:12:08;-1.70;71.00
7218;DHT22;3650;53.580;10.094;2022-12-18T05:14:34;-1.70;70.90
7218;DHT22;3650;53.580;10.094;2022-12-18T05:17:01;-1.70;70.90
7218;DHT22;3650;53.580;10.094;2022-12-18T05:19:28;-1.80;70.80
7218;DHT22;3650;53.580;10.094;2022-12-18T05:21:55;-1.80;70.80
7218;DHT22;3650;53.580;10.094;2022-12-18T05:24:23;-1.80;71.20
7218;DHT22;3650;53.580;10.094;2022-12-18T05:26:49;-1.80;71.50
7218;DHT22;3650;53.580;10.094;2022-12-18T05:29:16;-1.80;71.60
7218;DHT22;3650;53.580;10.094;2022-12-18T05:31:43;-1.80;71.30
7218;DHT22;3650;53.580;10.094;2022-12-18T05:34:10;-1.80;71.70
7218;DHT22;3650;53.580;10.094;2022-12-18T05:36:37;-1.80;71.90
7218;DHT22;3650;53.580;10.094;2022-12-18T05:39:03;-1.80;71.80
7218;DHT22;3650;53.580;10.094;2022-12-18T05:41:33;-1.90;71.40
7218;DHT22;3650;53.580;10.094;2022-12-18T05:44:00;-1.90;71.40
7218;DHT22;3650;53.580;10.094;2022-12-18T05:46:27;-2.00;71.00
7218;DHT22;3650;53.580;10.094;2022-12-18T05:48:55;-2.10;70.20
7218;DHT22;3650;53.580;10.094;2022-12-18T05:51:22;-2.20;70.60
7218;DHT22;3650;53.580;10.094;2022-12-18T05:53:49;-2.20;71.70
7218;DHT22;3650;53.580;10.094;2022-12-18T05:56:17;-2.30;72.30
7218;DHT22;3650;53.580;10.094;2022-12-18T05:58:46;-2.30;71.80
7218;DHT22;3650;53.580;10.094;2022-12-18T06:01:17;-2.40;72.20
7218;DHT22;3650;53.580;10.094;2022-12-18T06:03:44;-2.40;72.60
7218;DHT22;3650;53.580;10.094;2022-12-18T06:06:15;-2.40;72.80
7218;DHT22;3650;53.580;10.094;2022-12-18T06:08:42;-2.40;73.20
7218;DHT22;3650;53.580;10.094;2022-12-18T06:11:09;-2.40;74.10
7218;DHT22;3650;53.580;10.094;2022-12-18T06:13:37;-2.40;74.30
7218;DHT22;3650;53.580;10.094;2022-12-18T06:16:06;-2.40;74.10
7218;DHT22;3650;53.580;10.094;2022-12-18T06:18:34;-2.50;73.90
7218;DHT22;3650;53.580;10.094;2022-12-18T06:21:03;-2.50;74.10
7218;DHT22;3650;53.580;10.094;2022-12-18T06:23:30;-2.40;74.50
7218;DHT22;3650;53.580;10.094;2022-12-18T06:25:57;-2.50;74.70
7218;DHT22;3650;53.580;10.094;2022-12-18T06:28:24;-2.50;73.80
7218;DHT22;3650;53.580;10.094;2022-12-18T06:30:51;-2.50;74.60
7218;DHT22;3650;53.580;10.094;2022-12-18T06:33:20;-2.50;75.30
7218;DHT22;3650;53.580;10.094;2022-12-18T06:35:46;-2.50;75.80
7218;DHT22;3650;53.580;10.094;2022-12-18T06:38:13;-2.40;75.90
7218;DHT22;3650;53.580;10.094;2022-12-18T06:40:40;-2.40;75.80
7218;DHT22;3650;53.580;10.094;2022-12-18T06:43:07;-2.40;76.80
7218;DHT22;3650;53.580;10.094;2022-12-18T06:45:34;-2.40;75.80
7218;DHT22;3650;53.580;10.094;2022-12-18T06:48:01;-2.40;75.70
7218;DHT22;3650;53.580;10.094;2022-12-18T06:50:29;-2.40;75.40
7218;DHT22;3650;53.580;10.094;2022-12-18T06:52:57;-2.30;75.30
7218;DHT22;3650;53.580;10.094;2022-12-18T06:55:24;-2.30;75.20
7218;DHT22;3650;53.580;10.094;2022-12-18T06:57:51;-2.30;75.10
7218;DHT22;3650;53.580;10.094;2022-12-18T07:00:18;-2.30;74.90
7218;DHT22;3650;53.580;10.094;2022-12-18T07:02:45;-2.30;74.50
7218;DHT22;3650;53.580;10.094;2022-12-18T07:05:11;-2.30;74.30
7218;DHT22;3650;53.580;10.094;2022-12-18T07:07:39;-2.30;74.50
7218;DHT22;3650;53.580;10.094;2022-12-18T07:10:06;-2.20;74.80
7218;DHT22;3650;53.580;10.094;2022-12-18T07:12:33;-2.20;74.90
7218;DHT22;3650;53.580;10.094;2022-12-18T07:15:00;-2.20;74.80
7218;DHT22;3650;53.580;10.094;2022-12-18T07:17:27;-2.20;74.40
7218;DHT22;3650;53.580;10.094;2022-12-18T07:19:55;-2.20;74.20
7218;DHT22;3650;53.580;10.094;2022-12-18T07:22:21;-2.20;73.70
7218;DHT22;3650;53.580;10.094;2022-12-18T07:24:50;-2.20;73.60
7218;DHT22;3650;53.580;10.094;2022-12-18T07:27:16;-2.20;73.40
7218;DHT22;3650;53.580;10.094;2022-12-18T07:29:43;-2.20;73.70
7218;DHT22;3650;53.580;10.094;2022-12-18T07:32:10;-2.20;73.50
7218;DHT22;3650;53.580;10.094;2022-12-18T07:34:37;-2.20;73.40
7218;DHT22;3650;53.580;10.094;2022-12-18T07:37:04;-2.20;73.10
7218;DHT22;3650;53.580;10.094;2022-12-18T07:39:31;-2.20;73.10
7218;DHT22;3650;53.580;10.094;2022-12-18T07:41:59;-2.20;73.10
7218;DHT22;3650;53.580;10.094;2022-12-18T07:44:43;-2.20;72.90
7218;DHT22;3650;53.580;10.094;2022-12-18T07:47:13;-2.10;73.20
7218;DHT22;3650;53.580;10.094;2022-12-18T07:49:40;-2.10;73.10
7218;DHT22;3650;53.580;10.094;2022-12-18T07:52:07;-2.20;72.80
7218;DHT22;3650;53.580;10.094;2022-12-18T07:54:35;-2.10;72.80
7218;DHT22;3650;53.580;10.094;2022-12-18T07:57:03;-2.10;72.90
7218;DHT22;3650;53.580;10.094;2022-12-18T07:59:29;-2.10;73.10
7218;DHT22;3650;53.580;10.094;2022-12-18T08:01:56;-2.10;73.20
7218;DHT22;3650;53.580;10.094;2022-12-18T08:04:24;-2.10;73.00
7218;DHT22;3650;53.580;10.094;2022-12-18T08:06:51;-2.10;72.80
7218;DHT22;3650;53.580;10.094;2022-12-18T08:09:18;-2.10;72.90
7218;DHT22;3650;53.580;10.094;2022-12-18T08:11:44;-2.10;72.70
7218;DHT22;3650;53.580;10.094;2022-12-18T08:14:12;-2.10;72.60
7218;DHT22;3650;53.580;10.094;2022-12-18T08:16:40;-2.00;72.70
7218;DHT22;3650;53.580;10.094;2022-12-18T08:19:07;-2.00;72.70
7218;DHT22;3650;53.580;10.094;2022-12-18T08:21:37;-2.00;72.60
7218;DHT22;3650;53.580;10.094;2022-12-18T08:24:09;-2.00;72.50
7218;DHT22;3650;53.580;10.094;2022-12-18T08:26:36;-2.00;72.60
7218;DHT22;3650;53.580;10.094;2022-12-18T08:29:03;-2.00;72.60
7218;DHT22;3650;53.580;10.094;2022-12-18T08:31:31;-2.00;72.40
7218;DHT22;3650;53.580;10.094;2022-12-18T08:33:58;-2.00;72.40
7218;DHT22;3650;53.580;10.094;2022-12-18T08:36:25;-1.90;72.50
7218;DHT22;3650;53.580;10.094;2022-12-18T08:38:53;-1.90;72.70
7218;DHT22;3650;53.580;10.094;2022-12-18T08:41:20;-1.90;72.50
7218;DHT22;3650;53.580;10.094;2022-12-18T08:43:47;-1.90;72.50
7218;DHT22;3650;53.580;10.094;2022-12-18T08:46:35;-1.90;72.50
7218;DHT22;3650;53.580;10.094;2022-12-18T08:49:03;-1.80;72.70
7218;DHT22;3650;53.580;10.094;2022-12-18T08:51:30;-1.80;72.70
7218;DHT22;3650;53.580;10.094;2022-12-18T08:53:57;-1.80;72.60
7218;DHT22;3650;53.580;10.094;2022-12-18T08:56:24;-1.80;72.50
7218;DHT22;3650;53.580;10.094;2022-12-18T08:58:52;-1.80;72.20
7218;DHT22;3650;53.580;10.094;2022-12-18T09:01:19;-1.70;72.40
7218;DHT22;3650;53.580;10.094;2022-12-18T09:03:48;-1.70;72.50
7218;DHT22;3650;53.580;10.094;2022-12-18T09:06:15;-1.70;71.80
7218;DHT22;3650;53.580;10.094;2022-12-18T09:08:43;-1.70;72.00
7218;DHT22;3650;53.580;10.094;2022-12-18T09:11:14;-1.70;72.20
7218;DHT22;3650;53.580;10.094;2022-12-18T09:13:41;-1.60;72.30
7218;DHT22;3650;53.580;10.094;2022-12-18T09:16:08;-1.60;72.40
7218;DHT22;3650;53.580;10.094;2022-12-18T09:18:35;-1.60;72.20
7218;DHT22;3650;53.580;10.094;2022-12-18T09:21:09;-1.50;72.10
7218;DHT22;3650;53.580;10.094;2022-12-18T09:23:36;-1.50;72.20
7218;DHT22;3650;53.580;10.094;2022-12-18T09:26:04;-1.50;72.30
7218;DHT22;3650;53.580;10.094;2022-12-18T09:28:31;-1.50;72.20
7218;DHT22;3650;53.580;10.094;2022-12-18T09:31:04;-1.50;71.90
7218;DHT22;3650;53.580;10.094;2022-12-18T09:33:32;-1.40;72.10
7218;DHT22;3650;53.580;10.094;2022-12-18T09:36:01;-1.40;72.50
7218;DHT22;3650;53.580;10.094;2022-12-18T09:38:30;-1.30;72.50
7218;DHT22;3650;53.580;10.094;2022-12-18T09:41:00;-1.30;72.40
7218;DHT22;3650;53.580;10.094;2022-12-18T09:43:30;-1.30;72.10
7218;DHT22;3650;53.580;10.094;2022-12-18T09:46:03;-1.20;71.70
7218;DHT22;3650;53.580;10.094;2022-12-18T09:48:34;-1.20;71.70
7218;DHT22;3650;53.580;10.094;2022-12-18T09:51:05;-1.10;71.70
7218;DHT22;3650;53.580;10.094;2022-12-18T09:53:37;-1.10;71.20
7218;DHT22;3650;53.580;10.094;2022-12-18T09:56:11;-1.10;70.90
7218;DHT22;3650;53.580;10.094;2022-12-18T09:58:43;-1.10;70.70
7218;DHT22;3650;53.580;10.094;2022-12-18T10:01:15;-1.10;70.40
7218;DHT22;3650;53.580;10.094;2022-12-18T10:03:44;-1.10;70.20
7218;DHT22;3650;53.580;10.094;2022-12-18T10:06:13;-1.00;71.00
7218;DHT22;3650;53.580;10.094;2022-12-18T10:08:48;-1.00;71.40
7218;DHT22;3650;53.580;10.094;2022-12-18T10:11:28;-0.90;71.30
7218;DHT22;3650;53.580;10.094;2022-12-18T10:14:04;-0.90;71.10
7218;DHT22;3650;53.580;10.094;2022-12-18T10:16:38;-0.80;71.00
7218;DHT22;3650;53.580;10.094;2022-12-18T10:19:20;-0.80;70.90
7218;DHT22;3650;53.580;10.094;2022-12-18T10:21:53;-0.80;70.60
7218;DHT22;3650;53.580;10.094;2022-12-18T10:24:28;-0.70;69.90
7218;DHT22;3650;53.580;10.094;2022-12-18T10:26:59;-0.70;69.80
7218;DHT22;3650;53.580;10.094;2022-12-18T10:29:34;-0.70;69.70
7218;DHT22;3650;53.580;10.094;2022-12-18T10:32:01;-0.70;69.30
7218;DHT22;3650;53.580;10.094;2022-12-18T10:34:28;-0.60;69.20
7218;DHT22;3650;53.580;10.094;2022-12-18T10:36:55;-0.60;68.80
7218;DHT22;3650;53.580;10.094;2022-12-18T10:39:24;-0.60;68.50
7218;DHT22;3650;53.580;10.094;2022-12-18T10:41:52;-0.60;68.70
7218;DHT22;3650;53.580;10.094;2022-12-18T10:44:34;-0.60;69.10
7218;DHT22;3650;53.580;10.094;2022-12-18T10:47:04;-0.50;69.80
7218;DHT22;3650;53.580;10.094;2022-12-18T10:49:33;-0.50;69.20
7218;DHT22;3650;53.580;10.094;2022-12-18T10:52:14;-0.40;69.30
7218;DHT22;3650;53.580;10.094;2022-12-18T10:54:50;-0.40;68.70
7218;DHT22;3650;53.580;10.094;2022-12-18T10:57:30;-0.40;67.50
7218;DHT22;3650;53.580;10.094;2022-12-18T10:59:59;-0.30;68.00
7218;DHT22;3650;53.580;10.094;2022-12-18T11:02:34;-0.30;69.40
7218;DHT22;3650;53.580;10.094;2022-12-18T11:05:01;-0.30;68.80
7218;DHT22;3650;53.580;10.094;2022-12-18T11:07:47;-0.30;68.80
7218;DHT22;3650;53.580;10.094;2022-12-18T11:10:18;-0.20;66.70
7218;DHT22;3650;53.580;10.094;2022-12-18T11:12:46;-0.20;66.70
7218;DHT22;3650;53.580;10.094;2022-12-18T11:15:16;-0.20;66.70
7218;DHT22;3650;53.580;10.094;2022-12-18T11:17:47;-0.10;66.70
7218;DHT22;3650;53.580;10.094;2022-12-18T11:20:21;-0.10;66.80
7218;DHT22;3650;53.580;10.094;2022-12-18T11:22:56;-0.10;65.20
7218;DHT22;3650;53.580;10.094;2022-12-18T11:25:25;0.00;65.60
7218;DHT22;3650;53.580;10.094;2022-12-18T11:27:57;0.00;65.40
7218;DHT22;3650;53.580;10.094;2022-12-18T11:30:26;0.00;66.30
7218;DHT22;3650;53.580;10.094;2022-12-18T11:32:56;0.00;66.70
7218;DHT22;3650;53.580;10.094;2022-12-18T11:35:34;0.00;66.60
7218;DHT22;3650;53.580;10.094;2022-12-18T11:38:06;0.10;66.90
7218;DHT22;3650;53.580;10.094;2022-12-18T11:40:36;0.00;66.90
7218;DHT22;3650;53.580;10.094;2022-12-18T11:43:09;0.10;66.90
7218;DHT22;3650;53.580;10.094;2022-12-18T11:45:41;0.10;66.90
7218;DHT22;3650;53.580;10.094;2022-12-18T11:48:14;0.10;66.90
7218;DHT22;3650;53.580;10.094;2022-12-18T11:50:48;0.10;66.90
7218;DHT22;3650;53.580;10.094;2022-12-18T11:53:16;0.10;66.90
7218;DHT22;3650;53.580;10.094;2022-12-18T11:56:00;0.20;67.00
7218;DHT22;3650;53.580;10.094;2022-12-18T11:58:47;0.20;67.00
7218;DHT22;3650;53.580;10.094;2022-12-18T12:01:31;0.20;67.00
7218;DHT22;3650;53.580;10.094;2022-12-18T12:04:34;0.30;66.80
7218;DHT22;3650;53.580;10.094;2022-12-18T12:07:17;0.30;67.00
7218;DHT22;3650;53.580;10.094;2022-12-18T12:09:51;0.30;67.10
7218;DHT22;3650;53.580;10.094;2022-12-18T12:12:35;0.40;66.20
7218;DHT22;3650;53.580;10.094;2022-12-18T12:15:19;0.40;66.70
7218;DHT22;3650;53.580;10.094;2022-12-18T12:17:52;0.50;67.40
7218;DHT22;3650;53.580;10.094;2022-12-18T12:20:22;0.50;67.30
7218;DHT22;3650;53.580;10.094;2022-12-18T12:22:58;0.50;66.70
7218;DHT22;3650;53.580;10.094;2022-12-18T12:25:34;0.40;66.50
7218;DHT22;3650;53.580;10.094;2022-12-18T12:28:19;0.60;66.00
7218;DHT22;3650;53.580;10.094;2022-12-18T12:30:57;0.60;65.60
7218;DHT22;3650;53.580;10.094;2022-12-18T12:33:37;0.60;65.40
7218;DHT22;3650;53.580;10.094;2022-12-18T12:36:14;0.60;65.30
7218;DHT22;3650;53.580;10.094;2022-12-18T12:38:46;0.70;64.40
7218;DHT22;3650;53.580;10.094;2022-12-18T12:41:18;0.70;64.70
7218;DHT22;3650;53.580;10.094;2022-12-18T12:44:07;0.70;64.80
7218;DHT22;3650;53.580;10.094;2022-12-18T12:46:38;0.70;64.50
7218;DHT22;3650;53.580;10.094;2022-12-18T12:49:11;0.70;64.30
7218;DHT22;3650;53.580;10.094;2022-12-18T12:51:41;0.70;64.30
7218;DHT22;3650;53.580;10.094;2022-12-18T12:54:14;0.70;64.10
7218;DHT22;3650;53.580;10.094;2022-12-18T12:56:45;0.70;64.20
7218;DHT22;3650;53.580;10.094;2022-12-18T12:59:22;0.70;64.10
7218;DHT22;3650;53.580;10.094;2022-12-18T13:01:54;0.80;64.20
7218;DHT22;3650;53.580;10.094;2022-12-18T13:04:28;0.80;64.30
7218;DHT22;3650;53.580;10.094;2022-12-18T13:07:03;0.80;64.30
7218;DHT22;3650;53.580;10.094;2022-12-18T13:09:33;0.80;64.30
7218;DHT22;3650;53.580;10.094;2022-12-18T13:12:05;0.80;64.30
7218;DHT22;3650;53.580;10.094;2022-12-18T13:15:12;0.80;63.70
7218;DHT22;3650;53.580;10.094;2022-12-18T13:17:39;0.80;63.90
7218;DHT22;3650;53.580;10.094;2022-12-18T13:20:09;0.90;64.00
7218;DHT22;3650;53.580;10.094;2022-12-18T13:22:38;0.80;64.10
7218;DHT22;3650;53.580;10.094;2022-12-18T13:25:26;0.80;63.90
7218;DHT22;3650;53.580;10.094;2022-12-18T13:28:09;0.90;63.70
7218;DHT22;3650;53.580;10.094;2022-12-18T13:30:50;0.90;63.70
7218;DHT22;3650;53.580;10.094;2022-12-18T13:33:47;0.90;63.60
7218;DHT22;3650;53.580;10.094;2022-12-18T13:36:25;0.90;63.50
7218;DHT22;3650;53.580;10.094;2022-12-18T13:39:11;0.90;63.40
7218;DHT22;3650;53.580;10.094;2022-12-18T13:41:38;0.90;62.60
7218;DHT22;3650;53.580;10.094;2022-12-18T13:44:12;0.90;62.50
7218;DHT22;3650;53.580;10.094;2022-12-18T13:46:44;0.90;63.00
7218;DHT22;3650;53.580;10.094;2022-12-18T13:49:22;0.90;63.00
7218;DHT22;3650;53.580;10.094;2022-12-18T13:51:50;0.80;63.00
7218;DHT22;3650;53.580;10.094;2022-12-18T13:54:20;1.00;62.90
7218;DHT22;3650;53.580;10.094;2022-12-18T13:56:48;0.80;62.70
7218;DHT22;3650;53.580;10.094;2022-12-18T13:59:18;0.80;62.70
7218;DHT22;3650;53.580;10.094;2022-12-18T14:01:50;0.80;62.90
7218;DHT22;3650;53.580;10.094;2022-12-18T14:04:28;0.80;63.10
7218;DHT22;3650;53.580;10.094;2022-12-18T14:06:58;0.80;63.20
7218;DHT22;3650;53.580;10.094;2022-12-18T14:09:27;0.80;63.00
7218;DHT22;3650;53.580;10.094;2022-12-18T14:11:56;0.80;63.10
7218;DHT22;3650;53.580;10.094;2022-12-18T14:14:45;0.80;62.80
7218;DHT22;3650;53.580;10.094;2022-12-18T14:17:15;0.80;62.90
7218;DHT22;3650;53.580;10.094;2022-12-18T14:19:43;0.80;63.30
7218;DHT22;3650;53.580;10.094;2022-12-18T14:22:16;0.70;63.40
7218;DHT22;3650;53.580;10.094;2022-12-18T14:24:43;0.80;63.30
7218;DHT22;3650;53.580;10.094;2022-12-18T14:27:22;0.80;63.30
7218;DHT22;3650;53.580;10.094;2022-12-18T14:29:49;0.70;63.10
7218;DHT22;3650;53.580;10.094;2022-12-18T14:32:18;0.70;63.40
7218;DHT22;3650;53.580;10.094;2022-12-18T14:34:47;0.80;63.50
7218;DHT22;3650;53.580;10.094;2022-12-18T14:37:15;0.70;63.60
7218;DHT22;3650;53.580;10.094;2022-12-18T14:39:56;0.70;63.70
7218;DHT22;3650;53.580;10.094;2022-12-18T14:42:24;0.70;63.70
7218;DHT22;3650;53.580;10.094;2022-12-18T14:47:55;0.70;63.70
7218;DHT22;3650;53.580;10.094;2022-12-18T14:50:22;0.60;63.90
7218;DHT22;3650;53.580;10.094;2022-12-18T14:52:49;0.60;64.00
7218;DHT22;3650;53.580;10.094;2022-12-18T14:55:17;0.60;64.00
7218;DHT22;3650;53.580;10.094;2022-12-18T14:57:45;0.60;64.40
7218;DHT22;3650;53.580;10.094;2022-12-18T15:00:18;0.60;64.70
7218;DHT22;3650;53.580;10.094;2022-12-18T15:02:46;0.60;64.90
7218;DHT22;3650;53.580;10.094;2022-12-18T15:05:19;0.60;64.80
7218;DHT22;3650;53.580;10.094;2022-12-18T15:07:47;0.60;64.90
7218;DHT22;3650;53.580;10.094;2022-12-18T15:10:16;0.60;65.10
7218;DHT22;3650;53.580;10.094;2022-12-18T15:12:44;0.50;64.90
7218;DHT22;3650;53.580;10.094;2022-12-18T15:15:46;0.50;65.10
7218;DHT22;3650;53.580;10.094;2022-12-18T15:18:15;0.50;65.00
7218;DHT22;3650;53.580;10.094;2022-12-18T15:20:46;0.50;65.30
7218;DHT22;3650;53.580;10.094;2022-12-18T15:23:24;0.50;65.60
7218;DHT22;3650;53.580;10.094;2022-12-18T15:25:55;0.50;65.90
7218;DHT22;3650;53.580;10.094;2022-12-18T15:28:24;0.50;65.90
7218;DHT22;3650;53.580;10.094;2022-12-18T15:30:59;0.50;66.10
7218;DHT22;3650;53.580;10.094;2022-12-18T15:33:30;0.50;66.10
7218;DHT22;3650;53.580;10.094;2022-12-18T15:36:00;0.50;66.20
7218;DHT22;3650;53.580;10.094;2022-12-18T15:38:27;0.50;66.50
7218;DHT22;3650;53.580;10.094;2022-12-18T15:40:54;0.40;66.40
7218;DHT22;3650;53.580;10.094;2022-12-18T15:43:21;0.50;66.60
7218;DHT22;3650;53.580;10.094;2022-12-18T15:46:01;0.40;66.70
7218;DHT22;3650;53.580;10.094;2022-12-18T15:48:28;0.40;66.70
7218;DHT22;3650;53.580;10.094;2022-12-18T15:50:56;0.40;66.80
7218;DHT22;3650;53.580;10.094;2022-12-18T15:53:29;0.40;67.20
7218;DHT22;3650;53.580;10.094;2022-12-18T15:55:56;0.40;67.20
7218;DHT22;3650;53.580;10.094;2022-12-18T15:58:41;0.40;67.20
7218;DHT22;3650;53.580;10.094;2022-12-18T16:01:09;0.50;67.20
7218;DHT22;3650;53.580;10.094;2022-12-18T16:03:36;0.40;67.20
7218;DHT22;3650;53.580;10.094;2022-12-18T16:06:03;0.40;67.20
7218;DHT22;3650;53.580;10.094;2022-12-18T16:08:31;0.50;67.20
7218;DHT22;3650;53.580;10.094;2022-12-18T16:10:59;0.40;67.30
7218;DHT22;3650;53.580;10.094;2022-12-18T16:13:26;0.40;67.20
7218;DHT22;3650;53.580;10.094;2022-12-18T16:15:52;0.50;67.20